Time;durP1;ratioP1;P1;durP2;ratioP2;P2;SDS_P1;SDS_P2;PMS_P1;PMS_P2;Temp;Humidity;BMP_temperature;BMP_pressure;BME280_temperature;BME280_humidity;BME280_pressure;Samples;Min_cycle;Max_cycle;Signal;HPM_P1;HPM_P2
2022/04/18 00:00:40;;;;;;;16.17;9.95;;;;;;;;;;5006551;28;20532;-63
2022/04/18 00:03:06;;;;;;;15.82;9.75;;;;;;;;;;5006310;28;20117;-63
2022/04/18 00:05:33;;;;;;;19.65;10.57;;;;;;;;;;5005904;28;20050;-62
2022/04/18 00:07:59;;;;;;;17.45;9.40;;;;;;;;;;5006263;28;20050;-62
2022/04/18 00:10:25;;;;;;;15.82;9.52;;;;;;;;;;5006456;28;20047;-63
2022/04/18 00:12:51;;;;;;;16.20;10.05;;;;;;;;;;5006301;28;20042;-63
2022/04/18 00:15:17;;;;;;;16.73;9.18;;;;;;;;;;5006246;28;20042;-62
2022/04/18 00:17:43;;;;;;;17.90;9.93;;;;;;;;;;5006170;28;20046;-63
2022/04/18 00:20:10;;;;;;;16.40;10.00;;;;;;;;;;5006188;28;20106;-63
2022/04/18 00:22:36;;;;;;;18.52;11.20;;;;;;;;;;4988842;28;20046;-63
2022/04/18 00:25:02;;;;;;;23.85;9.95;;;;;;;;;;5006032;28;20079;-62
2022/04/18 00:27:28;;;;;;;17.05;9.75;;;;;;;;;;5006101;28;20102;-62
2022/04/18 00:29:55;;;;;;;21.85;10.50;;;;;;;;;;4988711;28;20077;-62
2022/04/18 00:32:21;;;;;;;15.00;9.82;;;;;;;;;;5005924;28;20141;-62
2022/04/18 00:34:48;;;;;;;16.60;9.98;;;;;;;;;;4981493;28;20058;-63
2022/04/18 00:37:14;;;;;;;15.65;9.98;;;;;;;;;;4986270;28;20050;-63
2022/04/18 00:39:40;;;;;;;16.92;9.77;;;;;;;;;;4968974;28;20418;-62
2022/04/18 00:42:06;;;;;;;16.05;9.68;;;;;;;;;;4986444;28;20377;-63
2022/04/18 00:44:32;;;;;;;16.23;9.68;;;;;;;;;;4986373;28;20055;-62
2022/04/18 00:46:58;;;;;;;18.15;10.20;;;;;;;;;;4986284;28;20467;-62
2022/04/18 00:49:25;;;;;;;17.83;10.23;;;;;;;;;;4986375;28;20125;-63
2022/04/18 00:51:51;;;;;;;18.00;10.93;;;;;;;;;;4986195;28;20123;-63
2022/04/18 00:54:17;;;;;;;18.67;10.55;;;;;;;;;;4985951;28;20050;-63
2022/04/18 00:56:44;;;;;;;18.88;11.10;;;;;;;;;;4986174;28;20053;-63
2022/04/18 00:59:11;;;;;;;16.73;10.45;;;;;;;;;;4986111;28;20057;-62
2022/04/18 01:01:38;;;;;;;19.85;10.00;;;;;;;;;;4986146;28;20069;-63
2022/04/18 01:04:04;;;;;;;20.88;11.27;;;;;;;;;;4985982;28;20046;-64
2022/04/18 01:06:31;;;;;;;17.63;10.65;;;;;;;;;;4985816;28;20049;-64
2022/04/18 01:08:58;;;;;;;20.50;11.15;;;;;;;;;;4985981;28;20078;-63
2022/04/18 01:11:24;;;;;;;20.98;11.82;;;;;;;;;;4986136;28;20043;-63
2022/04/18 01:13:51;;;;;;;20.10;10.70;;;;;;;;;;4985862;28;20058;-62
2022/04/18 01:16:17;;;;;;;20.38;11.05;;;;;;;;;;4985795;28;20132;-63
2022/04/18 01:18:45;;;;;;;18.40;10.98;;;;;;;;;;4985951;28;20078;-62
2022/04/18 01:21:11;;;;;;;16.77;10.18;;;;;;;;;;4985783;28;20039;-63
2022/04/18 01:23:38;;;;;;;14.30;9.95;;;;;;;;;;4985639;28;20047;-62
2022/04/18 01:28:58;;;;;;;20.45;11.02;;;;;;;;;;4985770;28;20050;-62
2022/04/18 01:31:28;;;;;;;17.75;10.88;;;;;;;;;;4968296;28;20046;-63
2022/04/18 01:33:55;;;;;;;18.67;11.68;;;;;;;;;;4985460;28;20066;-63
2022/04/18 01:36:21;;;;;;;23.38;11.35;;;;;;;;;;5002703;28;20097;-62
2022/04/18 01:38:47;;;;;;;20.15;11.80;;;;;;;;;;5005028;28;20073;-64
2022/04/18 01:41:13;;;;;;;19.88;10.93;;;;;;;;;;5005135;28;20042;-63
2022/04/18 01:43:39;;;;;;;20.42;11.13;;;;;;;;;;5005119;28;20049;-64
2022/04/18 01:46:05;;;;;;;19.15;10.20;;;;;;;;;;5005192;28;20058;-63
2022/04/18 01:48:31;;;;;;;20.25;11.40;;;;;;;;;;5004983;28;20105;-63
2022/04/18 01:50:57;;;;;;;18.98;10.63;;;;;;;;;;5005173;28;20050;-63
2022/04/18 01:53:24;;;;;;;19.48;11.68;;;;;;;;;;5004747;28;20046;-63
2022/04/18 01:55:50;;;;;;;19.27;11.93;;;;;;;;;;5005025;28;20054;-63
2022/04/18 01:58:16;;;;;;;17.48;11.13;;;;;;;;;;5005038;28;20050;-63
2022/04/18 02:00:42;;;;;;;17.52;10.38;;;;;;;;;;5004903;28;20080;-62
2022/04/18 02:03:08;;;;;;;20.50;10.68;;;;;;;;;;5004682;28;20050;-62
2022/04/18 02:05:34;;;;;;;18.98;12.23;;;;;;;;;;5005143;28;20054;-63
2022/04/18 02:08:00;;;;;;;24.15;12.15;;;;;;;;;;5004693;28;20046;-63
2022/04/18 02:10:26;;;;;;;18.27;11.75;;;;;;;;;;5004901;28;20125;-63
2022/04/18 02:12:53;;;;;;;17.63;11.05;;;;;;;;;;5004651;28;20045;-62
2022/04/18 02:15:21;;;;;;;16.73;10.70;;;;;;;;;;5004900;28;20053;-63
2022/04/18 02:17:47;;;;;;;19.65;11.65;;;;;;;;;;5004804;28;20053;-63
2022/04/18 02:20:13;;;;;;;17.90;11.57;;;;;;;;;;5004752;28;20078;-63
2022/04/18 02:22:39;;;;;;;20.17;12.45;;;;;;;;;;5004559;28;20046;-62
2022/04/18 02:25:05;;;;;;;19.67;11.82;;;;;;;;;;5004682;28;20561;-62
2022/04/18 02:27:31;;;;;;;20.25;12.10;;;;;;;;;;5006319;28;20053;-63
2022/04/18 02:29:57;;;;;;;22.20;12.63;;;;;;;;;;5008283;28;20053;-63
2022/04/18 02:35:09;;;;;;;21.48;12.88;;;;;;;;;;5008342;28;20061;-62
2022/04/18 02:37:35;;;;;;;18.35;12.32;;;;;;;;;;5008029;28;20049;-63
2022/04/18 02:40:01;;;;;;;22.35;11.98;;;;;;;;;;5008102;28;20065;-62
2022/04/18 02:42:27;;;;;;;20.60;12.60;;;;;;;;;;5008113;28;20433;-63
2022/04/18 02:44:53;;;;;;;23.38;12.20;;;;;;;;;;5007980;28;20418;-63
2022/04/18 02:47:19;;;;;;;19.88;11.98;;;;;;;;;;5007997;28;20675;-62
2022/04/18 02:49:45;;;;;;;18.60;12.57;;;;;;;;;;5008022;28;20042;-62
2022/04/18 02:52:11;;;;;;;19.02;13.07;;;;;;;;;;5007898;28;20046;-63
2022/04/18 02:54:37;;;;;;;21.98;11.77;;;;;;;;;;5007941;28;20043;-63
2022/04/18 02:57:03;;;;;;;19.98;11.35;;;;;;;;;;5007700;28;20049;-62
2022/04/18 02:59:29;;;;;;;23.52;11.80;;;;;;;;;;5007630;28;20092;-63
2022/04/18 03:01:56;;;;;;;20.83;12.63;;;;;;;;;;4990491;28;20042;-63
2022/04/18 03:04:22;;;;;;;25.77;12.93;;;;;;;;;;5007457;28;20050;-62
2022/04/18 03:06:48;;;;;;;18.17;11.85;;;;;;;;;;5007531;28;20043;-62
2022/04/18 03:09:15;;;;;;;18.73;11.93;;;;;;;;;;4990109;28;20050;-62
2022/04/18 03:11:41;;;;;;;26.25;12.27;;;;;;;;;;5007520;28;20042;-62
2022/04/18 03:14:07;;;;;;;21.10;12.48;;;;;;;;;;5007454;28;20082;-62
2022/04/18 03:16:34;;;;;;;19.67;11.27;;;;;;;;;;5007363;28;20509;-62
2022/04/18 03:19:00;;;;;;;19.38;11.52;;;;;;;;;;5007490;28;20050;-63
2022/04/18 03:21:26;;;;;;;22.77;10.65;;;;;;;;;;5007223;28;20042;-63
2022/04/18 03:23:53;;;;;;;17.95;11.15;;;;;;;;;;5007377;28;20322;-63
2022/04/18 03:26:20;;;;;;;20.10;11.15;;;;;;;;;;5007179;28;20050;-64
2022/04/18 03:28:46;;;;;;;21.38;11.85;;;;;;;;;;5007212;28;20060;-63
2022/04/18 03:31:12;;;;;;;20.33;10.73;;;;;;;;;;5007029;28;20058;-62
2022/04/18 03:33:38;;;;;;;17.88;10.60;;;;;;;;;;5007057;28;20082;-62
2022/04/18 03:41:34;;;;;;;18.02;11.60;;;;;;;;;;5006852;28;20046;-63
2022/04/18 03:44:00;;;;;;;16.67;11.35;;;;;;;;;;5006937;28;20054;-61
2022/04/18 03:46:26;;;;;;;18.25;12.18;;;;;;;;;;5006743;28;20042;-62
2022/04/18 03:48:52;;;;;;;16.20;11.25;;;;;;;;;;5006969;28;20052;-62
2022/04/18 03:51:18;;;;;;;17.92;11.05;;;;;;;;;;5006646;28;20046;-62
2022/04/18 03:53:44;;;;;;;24.30;11.95;;;;;;;;;;5006507;28;20092;-63
2022/04/18 03:56:10;;;;;;;19.23;12.25;;;;;;;;;;5006615;28;20042;-66
2022/04/18 03:58:36;;;;;;;18.65;11.27;;;;;;;;;;5006747;28;20061;-62
2022/04/18 04:01:02;;;;;;;19.58;11.38;;;;;;;;;;5006636;28;20046;-62
2022/04/18 04:03:29;;;;;;;19.60;12.75;;;;;;;;;;5006433;28;20050;-62
2022/04/18 04:05:55;;;;;;;17.65;11.15;;;;;;;;;;5006536;28;20050;-62
2022/04/18 04:08:24;;;;;;;18.33;11.43;;;;;;;;;;5006284;28;20482;-61
2022/04/18 04:10:50;;;;;;;18.50;12.75;;;;;;;;;;5006364;28;20058;-62
2022/04/18 04:13:17;;;;;;;17.65;11.02;;;;;;;;;;5006393;28;20046;-63
2022/04/18 04:15:43;;;;;;;15.57;10.23;;;;;;;;;;5006326;28;20050;-62
2022/04/18 04:18:10;;;;;;;18.13;10.80;;;;;;;;;;5006147;28;20106;-62
2022/04/18 04:20:36;;;;;;;18.27;11.13;;;;;;;;;;5006183;28;20053;-63
2022/04/18 04:23:02;;;;;;;18.10;10.18;;;;;;;;;;5006011;28;20050;-63
2022/04/18 04:25:28;;;;;;;17.90;12.02;;;;;;;;;;5006083;28;20042;-62
2022/04/18 04:27:54;;;;;;;19.63;12.15;;;;;;;;;;5006149;28;20057;-62
2022/04/18 04:30:20;;;;;;;19.15;11.23;;;;;;;;;;5005973;28;20097;-62
2022/04/18 04:32:48;;;;;;;17.23;11.85;;;;;;;;;;5005808;28;20046;-63
2022/04/18 04:35:14;;;;;;;19.38;11.20;;;;;;;;;;5005939;28;20530;-63
2022/04/18 04:37:40;;;;;;;20.17;11.15;;;;;;;;;;5005830;28;20050;-62
2022/04/18 04:40:08;;;;;;;18.50;10.73;;;;;;;;;;5005803;28;20046;-62
2022/04/18 04:42:34;;;;;;;17.42;11.20;;;;;;;;;;5006034;28;20057;-62
2022/04/18 04:45:00;;;;;;;15.93;10.20;;;;;;;;;;5005828;28;20054;-63
2022/04/18 04:47:26;;;;;;;20.40;10.68;;;;;;;;;;5005781;28;20045;-62
2022/04/18 04:49:52;;;;;;;18.13;10.52;;;;;;;;;;5005721;28;20052;-62
2022/04/18 04:52:20;;;;;;;21.88;10.27;;;;;;;;;;5005379;28;20042;-62
2022/04/18 04:54:46;;;;;;;15.52;9.73;;;;;;;;;;5005583;28;20072;-62
2022/04/18 04:57:12;;;;;;;18.27;10.88;;;;;;;;;;5005604;28;20038;-63
2022/04/18 04:59:38;;;;;;;16.77;10.52;;;;;;;;;;5005479;28;20097;-63
2022/04/18 05:02:05;;;;;;;20.42;10.85;;;;;;;;;;5005361;28;20042;-63
2022/04/18 05:04:31;;;;;;;14.18;11.15;;;;;;;;;;5005637;28;20125;-62
2022/04/18 05:06:57;;;;;;;16.73;10.48;;;;;;;;;;5005321;28;20042;-64
2022/04/18 05:09:24;;;;;;;23.15;11.15;;;;;;;;;;5005357;28;20073;-62
2022/04/18 05:11:50;;;;;;;17.50;10.82;;;;;;;;;;5005629;28;20078;-62
2022/04/18 05:14:16;;;;;;;16.73;10.93;;;;;;;;;;5005182;28;20064;-62
2022/04/18 05:16:42;;;;;;;15.60;10.73;;;;;;;;;;5005297;28;20060;-62
2022/04/18 05:19:08;;;;;;;19.08;11.25;;;;;;;;;;5005327;28;20077;-62
2022/04/18 05:21:34;;;;;;;16.00;10.48;;;;;;;;;;5005239;28;20057;-62
2022/04/18 05:24:01;;;;;;;18.90;10.82;;;;;;;;;;5005173;28;20053;-61
2022/04/18 05:26:28;;;;;;;17.17;10.33;;;;;;;;;;5005334;28;20042;-63
2022/04/18 05:28:54;;;;;;;15.70;10.63;;;;;;;;;;5005167;28;20473;-62
2022/04/18 05:31:20;;;;;;;18.20;12.55;;;;;;;;;;5005433;28;20102;-62
2022/04/18 05:33:46;;;;;;;14.25;10.00;;;;;;;;;;5005073;28;20085;-62
2022/04/18 05:36:12;;;;;;;17.17;11.13;;;;;;;;;;5004857;28;20518;-64
2022/04/18 05:38:39;;;;;;;15.73;10.20;;;;;;;;;;5004981;28;20556;-62
2022/04/18 05:41:05;;;;;;;18.33;10.98;;;;;;;;;;5005315;28;20121;-63
2022/04/18 05:43:31;;;;;;;13.75;10.20;;;;;;;;;;5005059;28;20042;-63
2022/04/18 05:45:57;;;;;;;16.85;10.52;;;;;;;;;;5005011;28;20565;-63
2022/04/18 05:48:23;;;;;;;16.90;10.60;;;;;;;;;;5005040;28;20082;-62
2022/04/18 05:50:49;;;;;;;18.35;10.35;;;;;;;;;;5005031;28;20126;-62
2022/04/18 05:53:16;;;;;;;14.00;9.38;;;;;;;;;;5004831;28;20054;-62
2022/04/18 05:55:43;;;;;;;19.42;10.23;;;;;;;;;;5004836;28;20051;-62
2022/04/18 05:58:09;;;;;;;15.15;9.73;;;;;;;;;;5004872;28;20046;-61
2022/04/18 06:00:35;;;;;;;17.25;10.10;;;;;;;;;;5004990;28;20046;-62
2022/04/18 06:03:02;;;;;;;13.38;9.20;;;;;;;;;;5007105;28;20042;-64
2022/04/18 06:05:28;;;;;;;17.85;9.18;;;;;;;;;;5008973;28;20050;-62
2022/04/18 06:07:54;;;;;;;16.88;9.30;;;;;;;;;;5008428;28;20046;-63
2022/04/18 06:10:21;;;;;;;19.33;9.30;;;;;;;;;;5008805;28;20042;-62
2022/04/18 06:12:47;;;;;;;15.20;8.88;;;;;;;;;;5008689;28;20084;-63
2022/04/18 06:15:13;;;;;;;14.68;9.20;;;;;;;;;;5008507;28;20050;-62
2022/04/18 06:17:39;;;;;;;14.75;9.02;;;;;;;;;;4990893;28;20111;-62
2022/04/18 06:20:06;;;;;;;15.85;10.18;;;;;;;;;;5008548;28;20051;-64
2022/04/18 06:22:32;;;;;;;16.38;9.13;;;;;;;;;;5008091;28;20057;-63
2022/04/18 06:24:58;;;;;;;12.52;8.05;;;;;;;;;;5008462;28;20042;-62
2022/04/18 06:27:24;;;;;;;12.98;8.82;;;;;;;;;;5008278;28;20089;-62
2022/04/18 06:29:51;;;;;;;14.82;8.70;;;;;;;;;;5008367;28;20493;-62
2022/04/18 06:32:17;;;;;;;13.30;8.93;;;;;;;;;;5008192;28;20046;-63
2022/04/18 06:34:43;;;;;;;14.35;9.30;;;;;;;;;;5008026;28;20445;-62
2022/04/18 06:37:09;;;;;;;14.80;9.63;;;;;;;;;;5007890;28;20046;-62
2022/04/18 06:39:36;;;;;;;11.95;8.73;;;;;;;;;;5008137;28;20050;-62
2022/04/18 06:42:03;;;;;;;13.30;8.43;;;;;;;;;;5008119;28;20132;-63
2022/04/18 06:44:29;;;;;;;12.50;7.82;;;;;;;;;;5008068;28;20104;-63
2022/04/18 06:46:55;;;;;;;11.82;7.57;;;;;;;;;;5007812;28;20046;-62
2022/04/18 06:49:21;;;;;;;11.93;8.13;;;;;;;;;;5007967;28;20046;-63
2022/04/18 06:51:47;;;;;;;12.07;8.43;;;;;;;;;;5007734;28;20105;-63
2022/04/18 06:54:13;;;;;;;14.82;8.25;;;;;;;;;;5007855;28;20102;-63
2022/04/18 06:59:24;;;;;;;17.10;7.78;;;;;;;;;;5007776;28;20112;-63
2022/04/18 07:01:50;;;;;;;14.32;9.15;;;;;;;;;;5007735;28;20106;-62
2022/04/18 07:04:16;;;;;;;12.48;8.40;;;;;;;;;;5007460;28;20050;-62
2022/04/18 07:06:43;;;;;;;13.52;9.25;;;;;;;;;;4989935;28;20050;-63
2022/04/18 07:09:09;;;;;;;10.73;8.02;;;;;;;;;;4989841;28;20050;-63
2022/04/18 07:11:36;;;;;;;15.95;8.32;;;;;;;;;;5007408;28;20073;-62
2022/04/18 07:14:02;;;;;;;13.30;8.33;;;;;;;;;;5007417;28;20050;-62
2022/04/18 07:16:30;;;;;;;14.13;7.90;;;;;;;;;;5007532;28;20042;-62
2022/04/18 07:18:57;;;;;;;12.57;8.70;;;;;;;;;;5007428;28;20112;-62
2022/04/18 07:21:23;;;;;;;13.20;8.90;;;;;;;;;;5007575;28;20046;-64
2022/04/18 07:23:49;;;;;;;18.52;9.07;;;;;;;;;;5006839;28;20517;-63
2022/04/18 07:26:16;;;;;;;12.30;8.30;;;;;;;;;;5007397;28;20092;-63
2022/04/18 07:28:42;;;;;;;12.90;8.85;;;;;;;;;;5007306;28;20039;-63
2022/04/18 07:31:08;;;;;;;12.75;7.90;;;;;;;;;;5007070;28;20587;-62
2022/04/18 07:33:34;;;;;;;10.25;7.47;;;;;;;;;;5006985;28;20042;-64
2022/04/18 07:36:02;;;;;;;12.13;8.40;;;;;;;;;;5006828;28;20050;-62
2022/04/18 07:41:14;;;;;;;11.77;7.72;;;;;;;;;;5007049;28;20087;-63
2022/04/18 07:43:40;;;;;;;11.25;7.15;;;;;;;;;;5006740;28;20046;-62
2022/04/18 07:46:06;;;;;;;13.00;7.63;;;;;;;;;;5006778;28;20076;-63
2022/04/18 07:48:32;;;;;;;13.15;6.88;;;;;;;;;;4989387;28;20510;-63
2022/04/18 07:53:43;;;;;;;12.30;7.05;;;;;;;;;;5006457;28;20053;-64
2022/04/18 07:56:09;;;;;;;10.57;7.25;;;;;;;;;;5006941;28;20043;-63
2022/04/18 07:58:36;;;;;;;12.95;7.35;;;;;;;;;;5006538;28;20042;-63
2022/04/18 08:01:02;;;;;;;12.80;7.85;;;;;;;;;;5006627;28;20065;-64
2022/04/18 08:03:28;;;;;;;12.65;7.68;;;;;;;;;;5006494;28;20078;-63
2022/04/18 08:05:56;;;;;;;9.02;6.90;;;;;;;;;;5006409;28;20110;-63
2022/04/18 08:08:22;;;;;;;11.93;7.47;;;;;;;;;;5006345;28;20057;-64
2022/04/18 08:10:48;;;;;;;13.90;8.02;;;;;;;;;;4988740;28;20530;-64
2022/04/18 08:13:14;;;;;;;11.05;7.35;;;;;;;;;;5005996;28;20038;-63
2022/04/18 08:15:40;;;;;;;9.82;6.82;;;;;;;;;;4988778;28;20532;-63
2022/04/18 08:18:07;;;;;;;12.82;7.90;;;;;;;;;;5006400;28;20121;-63
2022/04/18 08:20:33;;;;;;;10.20;6.20;;;;;;;;;;4988886;28;20102;-63
2022/04/18 08:22:59;;;;;;;8.93;6.40;;;;;;;;;;5006138;28;20522;-63
2022/04/18 08:25:25;;;;;;;10.52;7.30;;;;;;;;;;5005569;28;20402;-63
2022/04/18 08:27:51;;;;;;;9.48;6.82;;;;;;;;;;5005923;28;20445;-63
2022/04/18 08:30:18;;;;;;;10.43;7.10;;;;;;;;;;5006034;28;20046;-63
2022/04/18 08:32:44;;;;;;;11.18;7.40;;;;;;;;;;5005650;28;20126;-62
2022/04/18 08:35:11;;;;;;;11.80;7.75;;;;;;;;;;5005790;28;20054;-63
2022/04/18 08:37:37;;;;;;;13.88;7.47;;;;;;;;;;5006092;28;20054;-63
2022/04/18 08:40:07;;;;;;;11.13;7.40;;;;;;;;;;5005747;28;20046;-64
2022/04/18 08:42:37;;;;;;;11.30;7.88;;;;;;;;;;5005697;28;20076;-63
2022/04/18 08:45:05;;;;;;;10.25;7.05;;;;;;;;;;5005839;28;20108;-63
2022/04/18 08:53:02;;;;;;;11.15;6.85;;;;;;;;;;5005337;28;20053;-63
2022/04/18 08:55:29;;;;;;;11.77;7.50;;;;;;;;;;5005803;28;20081;-63
2022/04/18 08:57:55;;;;;;;10.15;7.90;;;;;;;;;;5005477;28;20088;-62
2022/04/18 09:00:21;;;;;;;12.23;7.47;;;;;;;;;;5005318;28;20054;-63
2022/04/18 09:02:47;;;;;;;9.95;6.70;;;;;;;;;;5005324;28;20050;-62
2022/04/18 09:05:14;;;;;;;11.23;7.60;;;;;;;;;;5005533;28;20077;-64
2022/04/18 09:07:45;;;;;;;10.68;7.10;;;;;;;;;;5005160;28;20079;-64
2022/04/18 09:10:11;;;;;;;10.02;6.65;;;;;;;;;;5005377;28;20081;-63
2022/04/18 09:12:42;;;;;;;9.68;6.47;;;;;;;;;;5005477;28;20050;-62
2022/04/18 09:15:09;;;;;;;11.43;6.95;;;;;;;;;;5005417;28;20081;-62
2022/04/18 09:17:36;;;;;;;13.55;7.60;;;;;;;;;;5005328;28;20038;-62
2022/04/18 09:20:04;;;;;;;12.53;7.50;;;;;;;;;;5005225;28;20052;-64
2022/04/18 09:22:30;;;;;;;17.42;7.15;;;;;;;;;;5005331;28;20047;-62
2022/04/18 09:24:56;;;;;;;11.73;7.07;;;;;;;;;;5005547;28;20047;-63
2022/04/18 09:27:26;;;;;;;9.60;6.65;;;;;;;;;;5005095;28;20053;-62
2022/04/18 09:30:05;;;;;;;8.60;6.28;;;;;;;;;;5005011;28;20050;-62
2022/04/18 09:32:31;;;;;;;10.57;7.50;;;;;;;;;;5004789;28;20050;-62
2022/04/18 09:35:01;;;;;;;10.23;6.40;;;;;;;;;;5004848;28;20058;-62
2022/04/18 09:37:31;;;;;;;10.82;7.22;;;;;;;;;;5006412;28;20050;-63
2022/04/18 09:39:57;;;;;;;9.60;6.65;;;;;;;;;;5009175;28;20331;-62
2022/04/18 09:42:25;;;;;;;11.63;7.85;;;;;;;;;;4991695;28;20057;-62
2022/04/18 09:44:51;;;;;;;10.75;7.57;;;;;;;;;;5009147;28;20065;-62
2022/04/18 09:47:18;;;;;;;9.77;7.13;;;;;;;;;;5008983;28;20076;-62
2022/04/18 09:49:44;;;;;;;9.10;6.97;;;;;;;;;;5009158;28;20046;-63
2022/04/18 09:52:12;;;;;;;10.77;6.60;;;;;;;;;;5009049;28;20117;-63
2022/04/18 09:54:45;;;;;;;10.30;7.00;;;;;;;;;;5009025;28;20061;-62
2022/04/18 09:57:11;;;;;;;12.00;7.30;;;;;;;;;;5009041;28;20126;-62
2022/04/18 09:59:38;;;;;;;10.27;7.95;;;;;;;;;;5008756;28;20537;-62
2022/04/18 10:02:04;;;;;;;8.80;6.15;;;;;;;;;;5008515;28;20057;-62
2022/04/18 10:04:30;;;;;;;13.00;6.50;;;;;;;;;;5008931;28;20053;-62
2022/04/18 10:06:59;;;;;;;8.40;6.57;;;;;;;;;;5008691;28;20050;-62
2022/04/18 10:09:26;;;;;;;11.40;6.05;;;;;;;;;;5008527;28;20043;-62
2022/04/18 10:11:55;;;;;;;9.75;6.75;;;;;;;;;;5008520;28;20098;-63
2022/04/18 10:14:21;;;;;;;12.88;7.30;;;;;;;;;;5008339;28;20042;-62
2022/04/18 10:16:47;;;;;;;11.23;7.00;;;;;;;;;;5008726;28;20053;-63
2022/04/18 10:19:52;;;;;;;11.32;7.13;;;;;;;;;;5008723;28;20050;-63
2022/04/18 10:22:32;;;;;;;10.20;6.82;;;;;;;;;;4910001;29;20132;-64
2022/04/18 10:25:04;;;;;;;11.95;6.55;;;;;;;;;;4910113;29;20060;-63
2022/04/18 10:27:37;;;;;;;9.02;6.18;;;;;;;;;;4909986;29;20048;-63
2022/04/18 10:30:03;;;;;;;11.40;6.93;;;;;;;;;;4909962;29;20068;-63
2022/04/18 10:32:30;;;;;;;8.55;6.22;;;;;;;;;;4909557;29;20184;-62
2022/04/18 10:35:03;;;;;;;11.60;6.68;;;;;;;;;;4909212;29;20070;-63
2022/04/18 10:37:30;;;;;;;11.40;5.63;;;;;;;;;;4909363;29;20581;-62
2022/04/18 10:40:01;;;;;;;10.38;6.15;;;;;;;;;;4909812;29;20060;-62
2022/04/18 10:42:32;;;;;;;10.15;5.72;;;;;;;;;;4909591;29;20123;-63
2022/04/18 10:45:02;;;;;;;9.00;5.55;;;;;;;;;;4909765;29;20049;-63
2022/04/18 10:47:48;;;;;;;8.07;5.10;;;;;;;;;;4909172;29;20691;-63
2022/04/18 10:50:18;;;;;;;6.75;4.90;;;;;;;;;;4909490;29;20087;-62
2022/04/18 10:53:04;;;;;;;7.60;5.03;;;;;;;;;;4930059;28;20050;-62
2022/04/18 10:55:30;;;;;;;6.13;4.40;;;;;;;;;;5007736;28;20046;-63
2022/04/18 10:58:16;;;;;;;5.85;3.03;;;;;;;;;;5007604;28;20049;-62
2022/04/18 11:00:53;;;;;;;3.88;3.03;;;;;;;;;;5007781;28;20050;-62
2022/04/18 11:03:51;;;;;;;4.30;3.05;;;;;;;;;;5007508;28;20058;-62
2022/04/18 11:06:17;;;;;;;4.97;3.15;;;;;;;;;;4909107;29;20067;-64
2022/04/18 11:09:08;;;;;;;5.47;2.92;;;;;;;;;;4908992;29;20051;-63
2022/04/18 11:11:40;;;;;;;5.20;2.90;;;;;;;;;;4909221;29;20157;-62
2022/04/18 11:14:19;;;;;;;6.28;3.10;;;;;;;;;;4908972;29;20076;-62
2022/04/18 11:16:46;;;;;;;5.72;3.42;;;;;;;;;;4908877;29;20064;-62
2022/04/18 11:19:14;;;;;;;6.55;4.18;;;;;;;;;;4908567;29;20071;-62
2022/04/18 11:21:56;;;;;;;6.30;4.40;;;;;;;;;;4893216;29;20071;-62
2022/04/18 11:24:41;;;;;;;7.55;4.18;;;;;;;;;;4908720;29;20085;-62
2022/04/18 11:27:07;;;;;;;6.57;3.53;;;;;;;;;;4908826;29;20307;-63
2022/04/18 11:29:34;;;;;;;5.55;3.80;;;;;;;;;;4908917;29;20494;-64
2022/04/18 11:32:00;;;;;;;5.00;3.88;;;;;;;;;;4908678;29;20060;-62
2022/04/18 11:34:27;;;;;;;7.65;3.90;;;;;;;;;;4893092;29;20071;-62
2022/04/18 11:36:57;;;;;;;6.28;4.50;;;;;;;;;;4906518;29;20060;-62
2022/04/18 11:39:23;;;;;;;3.75;3.20;;;;;;;;;;4908348;29;20136;-63
2022/04/18 11:41:49;;;;;;;6.43;4.55;;;;;;;;;;4955667;28;20050;-62
2022/04/18 11:44:19;;;;;;;5.72;3.70;;;;;;;;;;5006572;28;20052;-62
2022/04/18 11:46:45;;;;;;;4.57;3.20;;;;;;;;;;5006866;28;20050;-63
2022/04/18 11:49:12;;;;;;;4.90;3.47;;;;;;;;;;5006903;28;20101;-63
2022/04/18 11:51:41;;;;;;;5.10;3.58;;;;;;;;;;5006921;28;20043;-63
2022/04/18 11:54:07;;;;;;;4.72;3.58;;;;;;;;;;5006618;28;20042;-63
2022/04/18 11:56:33;;;;;;;5.18;3.75;;;;;;;;;;5006816;28;20049;-62
2022/04/18 11:59:06;;;;;;;4.78;3.72;;;;;;;;;;5006219;28;20049;-63
2022/04/18 12:07:01;;;;;;;6.78;3.67;;;;;;;;;;5006322;28;20146;-63
2022/04/18 12:09:27;;;;;;;4.00;3.60;;;;;;;;;;5006152;28;20042;-63
2022/04/18 12:11:54;;;;;;;4.25;3.35;;;;;;;;;;5006460;28;20332;-63
2022/04/18 12:14:20;;;;;;;5.13;3.25;;;;;;;;;;5006338;28;20074;-63
2022/04/18 12:16:46;;;;;;;4.03;3.08;;;;;;;;;;5006315;28;20046;-63
2022/04/18 12:19:15;;;;;;;4.60;3.72;;;;;;;;;;5006236;28;20399;-62
2022/04/18 12:21:50;;;;;;;4.50;3.45;;;;;;;;;;5005972;28;20042;-63
2022/04/18 12:24:16;;;;;;;5.10;3.53;;;;;;;;;;5005789;28;20097;-63
2022/04/18 12:26:43;;;;;;;5.43;3.60;;;;;;;;;;4988348;28;20088;-63
2022/04/18 12:29:11;;;;;;;4.53;3.13;;;;;;;;;;5006096;28;20103;-63
2022/04/18 12:31:41;;;;;;;5.25;3.13;;;;;;;;;;4988313;28;20138;-63
2022/04/18 12:34:07;;;;;;;3.70;3.10;;;;;;;;;;5005456;28;20106;-63
2022/04/18 12:36:35;;;;;;;6.38;4.00;;;;;;;;;;5005594;28;20058;-63
2022/04/18 12:39:02;;;;;;;5.32;3.40;;;;;;;;;;5005687;28;20058;-63
2022/04/18 12:41:33;;;;;;;8.15;3.05;;;;;;;;;;5005893;28;20046;-62
2022/04/18 12:43:59;;;;;;;6.03;3.30;;;;;;;;;;5005837;28;20113;-63
2022/04/18 12:46:34;;;;;;;5.60;3.70;;;;;;;;;;5005371;28;20042;-63
2022/04/18 12:49:05;;;;;;;4.90;3.60;;;;;;;;;;5005641;28;20097;-62
2022/04/18 12:51:42;;;;;;;3.97;3.45;;;;;;;;;;4988018;28;20050;-63
2022/04/18 12:54:27;;;;;;;5.80;2.97;;;;;;;;;;5005608;28;20129;-63
2022/04/18 12:56:54;;;;;;;3.80;3.22;;;;;;;;;;4988070;28;20476;-64
2022/04/18 12:59:26;;;;;;;5.22;3.17;;;;;;;;;;5005318;28;20050;-62
2022/04/18 13:01:53;;;;;;;4.38;3.42;;;;;;;;;;5005230;28;20102;-63
2022/04/18 13:04:23;;;;;;;4.28;3.35;;;;;;;;;;5005443;28;20052;-63
2022/04/18 13:07:02;;;;;;;3.92;3.13;;;;;;;;;;5005228;28;20063;-63
2022/04/18 13:09:28;;;;;;;6.57;3.05;;;;;;;;;;5005174;28;20046;-63
2022/04/18 13:12:02;;;;;;;3.47;2.75;;;;;;;;;;5005337;28;20052;-63
2022/04/18 13:14:28;;;;;;;3.28;2.97;;;;;;;;;;5005488;28;20761;-63
2022/04/18 13:17:07;;;;;;;5.85;3.40;;;;;;;;;;4987923;28;20060;-63
2022/04/18 13:19:33;;;;;;;3.33;2.92;;;;;;;;;;5005384;28;20510;-64
2022/04/18 13:21:59;;;;;;;3.45;2.70;;;;;;;;;;5005502;28;20073;-64
2022/04/18 13:24:25;;;;;;;4.25;3.42;;;;;;;;;;5005205;28;20076;-63
2022/04/18 13:26:52;;;;;;;7.25;4.00;;;;;;;;;;5005384;28;20121;-63
2022/04/18 13:29:18;;;;;;;4.60;3.50;;;;;;;;;;4987715;28;20074;-63
2022/04/18 13:31:44;;;;;;;3.92;3.20;;;;;;;;;;5005015;28;20067;-63
2022/04/18 13:34:10;;;;;;;4.65;3.20;;;;;;;;;;5005073;28;20513;-63
2022/04/18 13:36:37;;;;;;;3.00;2.70;;;;;;;;;;5004961;28;20054;-63
2022/04/18 13:39:07;;;;;;;3.35;3.05;;;;;;;;;;5005149;28;20058;-64
2022/04/18 13:41:34;;;;;;;5.53;2.78;;;;;;;;;;5005127;28;20050;-64
2022/04/18 13:44:00;;;;;;;;;;;;;;;;;;5005720;28;20046;-64
2022/04/18 13:46:26;;;;;;;3.38;2.92;;;;;;;;;;5004965;28;19922;-64
2022/04/18 13:48:53;;;;;;;;;;;;;;;;;;5005582;28;20043;-64
2022/04/18 13:51:19;;;;;;;6.53;3.10;;;;;;;;;;5004738;28;19948;-63
2022/04/18 13:53:45;;;;;;;6.85;3.40;;;;;;;;;;5004726;28;20102;-63
2022/04/18 13:56:12;;;;;;;5.03;3.45;;;;;;;;;;5004728;28;20186;-64
2022/04/18 13:58:38;;;;;;;5.75;2.88;;;;;;;;;;5005045;28;20557;-64
2022/04/18 14:01:04;;;;;;;3.80;2.97;;;;;;;;;;5004879;28;20094;-63
2022/04/18 14:03:32;;;;;;;4.55;3.25;;;;;;;;;;5004706;28;20074;-64
2022/04/18 14:05:58;;;;;;;3.40;3.00;;;;;;;;;;5005086;28;20050;-63
2022/04/18 14:08:25;;;;;;;3.83;2.90;;;;;;;;;;5004732;28;20061;-64
2022/04/18 14:10:51;;;;;;;4.13;2.80;;;;;;;;;;5004729;28;20038;-63
2022/04/18 14:13:18;;;;;;;3.10;2.80;;;;;;;;;;5004505;28;20050;-63
2022/04/18 14:21:14;;;;;;;3.55;2.50;;;;;;;;;;5004374;28;20053;-64
2022/04/18 14:23:41;;;;;;;5.05;2.55;;;;;;;;;;5006398;28;20054;-64
2022/04/18 14:26:08;;;;;;;3.38;2.47;;;;;;;;;;5008315;28;20074;-64
2022/04/18 14:28:34;;;;;;;4.70;2.67;;;;;;;;;;5008440;28;20106;-63
2022/04/18 14:31:00;;;;;;;;;;;;;;;;;;5008654;28;20054;-64
2022/04/18 14:33:26;;;;;;;5.97;2.28;;;;;;;;;;5007773;28;19921;-63
2022/04/18 14:35:52;;;;;;;3.92;2.95;;;;;;;;;;5007966;28;20057;-64
2022/04/18 14:38:18;;;;;;;4.57;2.63;;;;;;;;;;5008190;28;20050;-64
2022/04/18 14:40:44;;;;;;;3.38;2.60;;;;;;;;;;5008194;28;20077;-65
2022/04/18 14:43:16;;;;;;;2.95;2.28;;;;;;;;;;5007908;28;20077;-64
2022/04/18 14:45:46;;;;;;;4.72;2.67;;;;;;;;;;5007944;28;20039;-64
2022/04/18 14:48:12;;;;;;;3.58;2.70;;;;;;;;;;5007969;28;20077;-64
2022/04/18 14:50:39;;;;;;;2.83;2.33;;;;;;;;;;5007833;28;20054;-64
2022/04/18 14:53:12;;;;;;;2.75;1.90;;;;;;;;;;5007450;28;20054;-64
2022/04/18 14:55:39;;;;;;;3.15;2.38;;;;;;;;;;5007685;28;20050;-64
2022/04/18 14:58:05;;;;;;;;;;;;;;;;;;5008262;28;20131;-64
2022/04/18 15:00:31;;;;;;;2.85;2.45;;;;;;;;;;5007803;28;19929;-64
2022/04/18 15:02:57;;;;;;;;;;;;;;;;;;5007857;28;20070;-64
2022/04/18 15:05:23;;;;;;;4.20;2.75;;;;;;;;;;5007874;28;19922;-64
2022/04/18 15:07:49;;;;;;;3.55;3.05;;;;;;;;;;5007367;28;20050;-64